createdAt,value
2017-12-01T00:00:46.271Z,20.37
2017-12-01T00:03:12.537Z,19.40
2017-12-01T00:05:39.577Z,18.53
2017-12-01T00:08:05.822Z,19.60
2017-12-01T00:10:32.146Z,18.93
2017-12-01T00:12:58.722Z,18.20
2017-12-01T00:15:24.991Z,20.37
2017-12-01T00:17:51.286Z,19.60
2017-12-01T00:20:17.593Z,20.77
2017-12-01T00:22:44.590Z,20.93
2017-12-01T00:25:10.866Z,20.23
2017-12-01T00:27:38.141Z,22.23
2017-12-01T00:30:04.382Z,20.40
2017-12-01T00:32:30.656Z,21.20
2017-12-01T00:34:56.912Z,19.43
2017-12-01T00:37:23.953Z,20.00
2017-12-01T00:39:51.047Z,22.20
2017-12-01T00:42:17.354Z,19.60
2017-12-01T00:44:43.652Z,19.23
2017-12-01T00:47:09.962Z,22.23
2017-12-01T00:49:36.252Z,20.27
2017-12-01T00:52:02.545Z,19.70
2017-12-01T00:54:28.814Z,19.30
2017-12-01T00:56:55.093Z,20.93
2017-12-01T00:59:21.345Z,19.53
2017-12-01T01:01:48.390Z,20.70
2017-12-01T01:04:15.614Z,20.77
2017-12-01T01:06:41.871Z,19.37
2017-12-01T01:09:08.163Z,19.53
2017-12-01T01:11:34.417Z,20.93
2017-12-01T01:14:00.756Z,20.27
2017-12-01T01:16:27.056Z,22.90
2017-12-01T01:18:53.325Z,20.47
2017-12-01T01:21:21.296Z,21.13
2017-12-01T01:23:48.368Z,22.03
2017-12-01T01:26:14.656Z,19.87
2017-12-01T01:28:40.956Z,17.73
2017-12-01T01:31:07.216Z,18.10
2017-12-01T01:33:34.366Z,17.83
2017-12-01T01:36:00.631Z,19.90
2017-12-01T01:38:26.997Z,19.70
2017-12-01T01:40:53.309Z,18.80
2017-12-01T01:43:19.582Z,19.70
2017-12-01T01:45:46.369Z,18.37
2017-12-01T01:48:12.697Z,17.40
2017-12-01T01:50:39.748Z,17.83
2017-12-01T01:53:06.033Z,15.03
2017-12-01T01:55:32.326Z,15.10
2017-12-01T01:57:58.581Z,14.63
2017-12-01T02:00:24.827Z,15.00
2017-12-01T02:02:51.085Z,14.77
2017-12-01T02:05:18.175Z,16.83
2017-12-01T02:07:44.432Z,14.97
2017-12-01T02:10:10.739Z,14.90
2017-12-01T02:12:37.011Z,15.50
2017-12-01T02:15:04.029Z,15.90
2017-12-01T02:17:30.340Z,15.80
2017-12-01T02:19:56.600Z,14.90
2017-12-01T02:22:22.837Z,17.00
2017-12-01T02:24:49.172Z,15.90
2017-12-01T02:27:16.930Z,16.37
2017-12-01T02:29:43.204Z,15.07
2017-12-01T02:32:09.511Z,14.17
2017-12-01T02:34:36.520Z,15.77
2017-12-01T02:37:02.824Z,15.13
2017-12-01T02:39:29.096Z,15.60
2017-12-01T02:41:55.402Z,14.57
2017-12-01T02:44:21.684Z,15.33
2017-12-01T02:46:48.702Z,15.90
2017-12-01T02:49:14.981Z,16.13
2017-12-01T02:51:41.251Z,15.87
2017-12-01T02:54:07.521Z,17.83
2017-12-01T02:56:34.516Z,16.03
2017-12-01T02:59:00.892Z,15.70
2017-12-01T03:01:27.965Z,15.83
2017-12-01T03:03:54.283Z,18.07
2017-12-01T03:06:21.305Z,15.23
2017-12-01T03:08:47.636Z,15.23
2017-12-01T03:11:13.937Z,18.10
2017-12-01T03:13:40.206Z,17.87
2017-12-01T03:16:06.472Z,16.57
2017-12-01T03:18:32.801Z,16.40
2017-12-01T03:20:59.102Z,14.63
2017-12-01T03:23:26.946Z,15.90
2017-12-01T03:25:53.253Z,14.70
2017-12-01T03:28:19.624Z,15.10
2017-12-01T03:30:45.865Z,18.10
2017-12-01T03:33:12.142Z,15.33
2017-12-01T03:35:38.420Z,14.93
2017-12-01T03:38:05.456Z,15.60
2017-12-01T03:40:31.818Z,14.57
2017-12-01T03:42:58.076Z,17.37
2017-12-01T03:45:24.364Z,15.50
2017-12-01T03:47:51.392Z,15.40
2017-12-01T03:50:18.062Z,14.17
2017-12-01T03:52:45.139Z,15.30
2017-12-01T03:55:11.413Z,17.00
2017-12-01T03:57:37.682Z,15.20
2017-12-01T04:00:03.965Z,14.80
2017-12-01T04:02:30.262Z,16.90
2017-12-01T04:04:56.521Z,16.97
2017-12-01T04:07:22.807Z,15.97
2017-12-01T04:09:49.075Z,16.30
2017-12-01T04:12:15.393Z,14.23
2017-12-01T04:14:41.643Z,15.13
2017-12-01T04:17:08.020Z,16.73
2017-12-01T04:19:34.293Z,14.50
2017-12-01T04:22:00.611Z,16.87
2017-12-01T04:24:26.875Z,14.73
2017-12-01T04:26:53.286Z,15.00
2017-12-01T04:29:19.593Z,15.57
2017-12-01T04:31:45.970Z,14.60
2017-12-01T04:34:12.256Z,15.27
2017-12-01T04:36:38.586Z,16.83
2017-12-01T04:39:04.948Z,16.40
2017-12-01T04:41:31.270Z,17.37
2017-12-01T04:43:57.516Z,16.00
2017-12-01T04:46:23.846Z,15.17
2017-12-01T04:48:50.132Z,15.37
2017-12-01T04:51:16.396Z,16.27
2017-12-01T04:53:42.695Z,15.50
2017-12-01T04:56:09.043Z,15.97
2017-12-01T04:58:35.376Z,15.80
2017-12-01T05:01:01.667Z,16.70
2017-12-01T05:03:27.968Z,17.17
2017-12-01T05:05:54.266Z,16.20
2017-12-01T05:08:20.526Z,16.97
2017-12-01T05:10:46.880Z,16.07
2017-12-01T05:13:13.909Z,16.43
2017-12-01T05:15:40.156Z,17.83
2017-12-01T05:18:07.227Z,16.50
2017-12-01T05:20:34.447Z,17.27
2017-12-01T05:23:00.773Z,15.80
2017-12-01T05:25:27.885Z,14.73
2017-12-01T05:27:54.200Z,17.47
2017-12-01T05:30:20.541Z,16.40
2017-12-01T05:32:46.794Z,16.70
2017-12-01T05:35:13.092Z,15.77
2017-12-01T05:37:39.395Z,16.50
2017-12-01T05:40:06.490Z,15.70
2017-12-01T05:42:32.810Z,16.70
2017-12-01T05:44:59.096Z,16.27
2017-12-01T05:47:26.236Z,16.10
2017-12-01T05:49:53.336Z,16.37
2017-12-01T05:52:19.668Z,16.43
2017-12-01T05:54:46.007Z,16.47
2017-12-01T05:57:12.277Z,15.23
2017-12-01T05:59:38.543Z,15.53
2017-12-01T06:02:05.079Z,14.87
2017-12-01T06:04:31.368Z,15.50
2017-12-01T06:06:57.632Z,14.60
2017-12-01T06:09:23.902Z,13.00
2017-12-01T06:11:50.191Z,13.40
2017-12-01T06:14:16.477Z,13.13
2017-12-01T06:16:42.907Z,14.17
2017-12-01T06:19:09.193Z,13.10
2017-12-01T06:21:35.431Z,13.07
2017-12-01T06:24:01.675Z,14.77
2017-12-01T06:26:27.971Z,14.23
2017-12-01T06:28:54.281Z,14.30
2017-12-01T06:31:21.375Z,14.10
2017-12-01T06:33:47.691Z,14.27
2017-12-01T06:36:14.001Z,15.10
2017-12-01T06:38:41.263Z,15.53
2017-12-01T06:41:07.628Z,14.73
2017-12-01T06:43:33.938Z,13.97
2017-12-01T06:46:00.224Z,14.90
2017-12-01T06:48:26.559Z,15.83
2017-12-01T06:50:52.840Z,18.20
2017-12-01T06:53:19.146Z,16.50
2017-12-01T06:55:46.225Z,16.33
2017-12-01T06:58:12.514Z,18.10
2017-12-01T07:00:39.644Z,18.10
2017-12-01T07:03:05.977Z,16.27
2017-12-01T07:05:32.338Z,15.93
2017-12-01T07:07:58.638Z,15.80
2017-12-01T07:10:24.920Z,15.10
2017-12-01T07:12:58.180Z,16.40
2017-12-01T07:15:25.976Z,13.33
2017-12-01T07:17:52.239Z,15.83
2017-12-01T07:20:18.538Z,16.57
2017-12-01T07:22:44.818Z,16.47
2017-12-01T07:25:11.260Z,15.13
2017-12-01T07:27:37.545Z,13.73
2017-12-01T07:30:03.967Z,14.37
2017-12-01T07:32:30.382Z,14.07
2017-12-01T07:34:56.833Z,13.87
2017-12-01T07:37:23.112Z,14.33
2017-12-01T07:39:49.404Z,13.80
2017-12-01T07:42:15.684Z,14.93
2017-12-01T07:44:44.704Z,14.20
2017-12-01T07:47:11.007Z,14.67
2017-12-01T07:49:38.037Z,14.10
2017-12-01T07:52:04.309Z,15.50
2017-12-01T07:54:30.647Z,14.07
2017-12-01T07:56:56.980Z,12.83
2017-12-01T07:59:23.287Z,14.57
2017-12-01T08:01:50.334Z,14.67
2017-12-01T08:04:17.396Z,15.50
2017-12-01T08:06:43.660Z,16.83
2017-12-01T08:09:09.930Z,13.20
2017-12-01T08:11:36.264Z,13.53
2017-12-01T08:14:02.528Z,13.27
2017-12-01T08:16:47.644Z,11.50
2017-12-01T08:19:20.046Z,13.43
2017-12-01T08:22:05.831Z,13.27
2017-12-01T08:24:51.710Z,12.80
2017-12-01T08:27:18.013Z,14.63
2017-12-01T08:29:44.314Z,15.07
2017-12-01T08:32:17.689Z,13.70
2017-12-01T08:34:44.686Z,13.60
2017-12-01T08:37:10.973Z,14.80
2017-12-01T08:39:38.017Z,15.07
2017-12-01T08:42:04.295Z,14.57
2017-12-01T08:44:30.589Z,14.07
2017-12-01T08:46:56.891Z,14.23
2017-12-01T08:49:23.926Z,15.03
2017-12-01T08:51:51.189Z,14.97
2017-12-01T08:54:18.261Z,14.57
2017-12-01T08:56:44.615Z,13.97
2017-12-01T08:59:10.924Z,14.50
2017-12-01T09:01:37.200Z,14.90
2017-12-01T09:04:03.496Z,14.00
2017-12-01T09:06:29.758Z,13.43
2017-12-01T09:08:56.048Z,13.90
2017-12-01T09:11:22.356Z,16.57
2017-12-01T09:13:49.444Z,16.00
2017-12-01T09:16:15.734Z,18.13
2017-12-01T09:18:42.782Z,17.03
2017-12-01T09:21:09.871Z,18.10
2017-12-01T09:23:36.201Z,18.70
2017-12-01T09:26:02.555Z,17.50
2017-12-01T09:28:28.873Z,17.33
2017-12-01T09:30:55.212Z,14.97
2017-12-01T09:33:21.493Z,15.80
2017-12-01T09:35:48.542Z,16.90
2017-12-01T09:38:15.621Z,17.33
2017-12-01T09:40:42.587Z,17.13
2017-12-01T09:43:09.118Z,16.97
2017-12-01T09:45:35.970Z,16.10
2017-12-01T09:48:03.338Z,14.53
2017-12-01T09:50:30.490Z,16.17
2017-12-01T09:52:58.047Z,14.83
2017-12-01T09:55:24.939Z,15.90
2017-12-01T09:57:51.269Z,14.67
2017-12-01T10:00:19.519Z,15.43
2017-12-01T10:02:46.601Z,16.50
2017-12-01T10:05:13.572Z,16.20
2017-12-01T10:07:40.260Z,17.90
2017-12-01T10:10:08.801Z,16.67
2017-12-01T10:12:35.714Z,16.67
2017-12-01T10:15:02.561Z,16.33
2017-12-01T10:17:29.514Z,16.57
2017-12-01T10:19:56.552Z,17.87
2017-12-01T10:22:23.075Z,16.80
2017-12-01T10:24:51.027Z,17.30
2017-12-01T10:27:17.284Z,17.50
2017-12-01T10:29:43.635Z,16.97
2017-12-01T10:32:09.933Z,17.50
2017-12-01T10:34:36.982Z,17.27
2017-12-01T10:37:05.034Z,18.00
2017-12-01T10:39:31.338Z,18.33
2017-12-01T10:41:57.696Z,19.30
2017-12-01T10:44:23.958Z,18.77
2017-12-01T10:46:50.285Z,19.17
2017-12-01T10:49:17.332Z,17.77
2017-12-01T10:51:43.608Z,17.63
2017-12-01T10:54:09.926Z,17.93
2017-12-01T10:56:36.344Z,19.57
2017-12-01T10:59:02.654Z,18.73
2017-12-01T11:01:29.736Z,19.70
2017-12-01T11:03:56.604Z,18.30
2017-12-01T11:06:22.876Z,18.03
2017-12-01T11:08:49.177Z,16.90
2017-12-01T11:11:15.455Z,18.57
2017-12-01T11:13:41.759Z,19.00
2017-12-01T11:16:08.795Z,18.43
2017-12-01T11:18:35.069Z,19.60
2017-12-01T11:21:02.178Z,19.03
2017-12-01T11:23:29.615Z,17.90
2017-12-01T11:25:56.318Z,17.17
2017-12-01T11:28:23.166Z,17.43
2017-12-01T11:30:50.160Z,17.70
2017-12-01T11:33:17.134Z,16.70
2017-12-01T11:35:43.440Z,15.60
2017-12-01T11:38:10.492Z,17.63
2017-12-01T11:40:37.616Z,17.67
2017-12-01T11:43:03.946Z,17.13
2017-12-01T11:45:30.812Z,16.43
2017-12-01T11:47:58.269Z,16.90
2017-12-01T11:50:25.295Z,16.67
2017-12-01T11:52:51.561Z,18.73
2017-12-01T11:55:18.559Z,17.50
2017-12-01T11:57:44.863Z,19.87
2017-12-01T12:00:11.195Z,19.37
2017-12-01T12:02:37.459Z,18.13
2017-12-01T12:05:03.729Z,19.53
2017-12-01T12:07:30.837Z,18.37
2017-12-01T12:09:57.108Z,16.77
2017-12-01T12:12:24.160Z,14.60
2017-12-01T12:14:51.194Z,17.23
2017-12-01T12:17:18.177Z,19.53
2017-12-01T12:19:44.474Z,19.07
2017-12-01T12:22:11.530Z,19.23
2017-12-01T12:24:37.814Z,19.27
2017-12-01T12:27:04.896Z,20.60
2017-12-01T12:29:31.963Z,23.40
2017-12-01T12:31:58.303Z,20.40
2017-12-01T12:34:24.641Z,19.47
2017-12-01T12:36:50.971Z,19.73
2017-12-01T12:39:17.251Z,18.60
2017-12-01T12:41:43.565Z,19.63
2017-12-01T12:44:09.913Z,19.57
2017-12-01T12:46:36.197Z,20.27
2017-12-01T12:49:02.473Z,21.10
2017-12-01T12:51:28.787Z,20.60
2017-12-01T12:53:55.101Z,21.67
2017-12-01T12:56:21.375Z,21.17
2017-12-01T12:58:47.697Z,21.70
2017-12-01T13:01:14.009Z,20.90
2017-12-01T13:03:40.333Z,19.60
2017-12-01T13:06:06.629Z,21.93
2017-12-01T13:08:32.897Z,22.10
2017-12-01T13:10:59.187Z,22.33
2017-12-01T13:13:25.507Z,20.33
2017-12-01T13:15:52.527Z,21.57
2017-12-01T13:18:18.807Z,20.53
2017-12-01T13:20:45.154Z,20.57
2017-12-01T13:23:11.416Z,24.20
2017-12-01T13:25:37.760Z,22.67
2017-12-01T13:28:04.050Z,22.53
2017-12-01T13:30:30.383Z,22.70
2017-12-01T13:32:56.691Z,22.60
2017-12-01T13:35:22.936Z,22.87
2017-12-01T13:37:49.188Z,22.30
2017-12-01T13:40:15.553Z,21.50
2017-12-01T13:42:42.569Z,20.93
2017-12-01T13:45:08.896Z,22.93
2017-12-01T13:47:35.211Z,19.53
2017-12-01T13:50:01.514Z,18.77
2017-12-01T13:52:27.802Z,18.53
2017-12-01T13:54:54.113Z,18.50
2017-12-01T13:57:20.398Z,17.47
2017-12-01T13:59:46.689Z,18.07
2017-12-01T14:02:13.404Z,15.80
2017-12-01T14:04:40.038Z,19.47
2017-12-01T14:07:06.314Z,15.53
2017-12-01T14:09:33.409Z,14.27
2017-12-01T14:11:59.677Z,14.80
2017-12-01T14:14:25.935Z,16.83
2017-12-01T14:16:52.957Z,12.67
2017-12-01T14:19:19.344Z,12.23
2017-12-01T14:21:45.610Z,14.17
2017-12-01T14:24:11.924Z,14.23
2017-12-01T14:26:38.227Z,14.57
2017-12-01T14:29:04.489Z,15.43
2017-12-01T14:31:30.856Z,13.40
2017-12-01T14:33:58.158Z,15.23
2017-12-01T14:36:24.427Z,15.50
2017-12-01T14:38:50.744Z,15.07
2017-12-01T14:41:16.990Z,17.17
2017-12-01T14:43:43.336Z,20.13
2017-12-01T14:46:10.342Z,19.87
2017-12-01T14:48:36.638Z,19.10
2017-12-01T14:51:03.129Z,18.40
2017-12-01T14:53:29.474Z,17.90
2017-12-01T14:55:57.280Z,19.73
2017-12-01T14:58:23.627Z,21.23
2017-12-01T15:00:49.939Z,21.23
2017-12-01T15:03:16.273Z,18.13
2017-12-01T15:05:42.609Z,19.10
2017-12-01T15:08:08.899Z,18.40
2017-12-01T15:10:35.203Z,14.63
2017-12-01T15:13:01.530Z,13.37
2017-12-01T15:15:27.865Z,14.10
2017-12-01T15:17:54.145Z,13.33
2017-12-01T15:20:21.551Z,14.10
2017-12-01T15:22:47.831Z,14.37
2017-12-01T15:25:14.469Z,13.07
2017-12-01T15:27:40.769Z,13.07
2017-12-01T15:30:07.214Z,14.20
2017-12-01T15:32:34.366Z,12.67
2017-12-01T15:35:01.456Z,12.77
2017-12-01T15:37:27.844Z,12.93
2017-12-01T15:39:54.926Z,12.33
2017-12-01T15:42:21.229Z,13.57
2017-12-01T15:44:48.621Z,16.53
2017-12-01T15:47:14.926Z,12.83
2017-12-01T15:49:41.264Z,13.10
2017-12-01T15:52:07.563Z,12.70
2017-12-01T15:54:33.839Z,12.43
2017-12-01T15:57:00.116Z,13.07
2017-12-01T15:59:26.554Z,10.23
2017-12-01T16:01:53.127Z,12.27
2017-12-01T16:04:19.460Z,11.30
2017-12-01T16:06:45.730Z,11.70
2017-12-01T16:09:12.040Z,9.70
2017-12-01T16:11:38.335Z,11.77
2017-12-01T16:14:05.397Z,11.00
2017-12-01T16:16:31.679Z,9.87
2017-12-01T16:18:58.036Z,9.93
2017-12-01T16:21:25.309Z,9.30
2017-12-01T16:23:51.667Z,10.77
2017-12-01T16:26:17.976Z,9.87
2017-12-01T16:28:44.732Z,9.97
2017-12-01T16:31:11.171Z,10.13
2017-12-01T16:33:37.502Z,9.87
2017-12-01T16:36:04.024Z,9.60
2017-12-01T16:38:30.328Z,10.70
2017-12-01T16:40:57.514Z,11.83
2017-12-01T16:43:23.778Z,9.70
2017-12-01T16:45:50.074Z,9.10
2017-12-01T16:48:16.434Z,10.00
2017-12-01T16:50:42.752Z,9.90
2017-12-01T16:53:09.097Z,9.73
2017-12-01T16:55:35.410Z,11.47
2017-12-01T16:58:01.709Z,11.20
2017-12-01T17:00:28.004Z,11.10
2017-12-01T17:02:54.320Z,11.97
2017-12-01T17:05:20.645Z,12.43
2017-12-01T17:07:47.021Z,11.10
2017-12-01T17:10:14.062Z,10.63
2017-12-01T17:12:41.069Z,11.63
2017-12-01T17:15:07.350Z,10.70
2017-12-01T17:17:34.404Z,9.60
2017-12-01T17:20:01.481Z,9.50
2017-12-01T17:22:27.777Z,12.00
2017-12-01T17:24:54.971Z,13.03
2017-12-01T17:27:21.299Z,13.57
2017-12-01T17:29:47.774Z,18.90
2017-12-01T17:32:14.088Z,16.67
2017-12-01T17:34:40.448Z,14.33
2017-12-01T17:37:07.544Z,11.43
2017-12-01T17:39:33.881Z,13.67
2017-12-01T17:42:00.202Z,14.17
2017-12-01T17:44:26.526Z,12.00
2017-12-01T17:46:52.871Z,13.43
2017-12-01T17:49:19.166Z,11.97
2017-12-01T17:51:46.157Z,14.07
2017-12-01T17:54:12.469Z,13.33
2017-12-01T17:56:38.808Z,14.23
2017-12-01T17:59:05.128Z,13.30
2017-12-01T18:01:31.472Z,17.13
2017-12-01T18:03:58.003Z,10.90
2017-12-01T18:06:24.401Z,10.60
2017-12-01T18:08:51.651Z,11.37
2017-12-01T18:11:18.751Z,10.27
2017-12-01T18:13:45.094Z,15.10
2017-12-01T18:16:11.391Z,19.17
2017-12-01T18:18:37.725Z,14.13
2017-12-01T18:21:04.096Z,13.67
2017-12-01T18:23:30.455Z,18.03
2017-12-01T18:25:57.536Z,9.47
2017-12-01T18:28:23.833Z,11.70
2017-12-01T18:30:50.890Z,11.00
2017-12-01T18:33:17.960Z,8.83
2017-12-01T18:35:44.310Z,8.73
2017-12-01T18:38:10.642Z,9.53
2017-12-01T18:40:36.996Z,9.23
2017-12-01T18:43:03.342Z,9.30
2017-12-01T18:45:33.143Z,11.10
2017-12-01T18:48:00.159Z,10.77
2017-12-01T18:50:26.470Z,8.60
2017-12-01T18:52:52.755Z,11.50
2017-12-01T18:55:19.068Z,9.60
2017-12-01T18:57:45.395Z,10.10
2017-12-01T19:00:11.705Z,10.70
2017-12-01T19:02:38.056Z,10.77
2017-12-01T19:05:04.397Z,10.23
2017-12-01T19:07:30.833Z,11.50
2017-12-01T19:09:57.793Z,10.03
2017-12-01T19:12:24.287Z,10.73
2017-12-01T19:14:50.610Z,11.03
2017-12-01T19:17:16.936Z,10.30
2017-12-01T19:19:43.224Z,10.77
2017-12-01T19:22:09.676Z,12.10
2017-12-01T19:24:36.110Z,10.50
2017-12-01T19:27:03.177Z,10.30
2017-12-01T19:29:29.490Z,11.00
2017-12-01T19:31:56.562Z,12.43
2017-12-01T19:34:22.900Z,10.40
2017-12-01T19:36:49.296Z,10.37
2017-12-01T19:39:16.300Z,9.97
2017-12-01T19:41:42.629Z,10.30
2017-12-01T19:44:08.917Z,11.63
2017-12-01T19:46:35.965Z,11.53
2017-12-01T19:49:03.068Z,11.33
2017-12-01T19:51:30.261Z,11.10
2017-12-01T19:53:56.586Z,13.97
2017-12-01T19:56:23.663Z,11.90
2017-12-01T19:58:49.906Z,11.13
2017-12-01T20:01:16.270Z,12.63
2017-12-01T20:03:42.628Z,13.27
2017-12-01T20:06:09.745Z,11.07
2017-12-01T20:08:36.400Z,13.73
2017-12-01T20:11:02.896Z,13.20
2017-12-01T20:13:29.518Z,13.27
2017-12-01T20:15:56.001Z,13.20
2017-12-01T20:18:22.724Z,13.40
2017-12-01T20:20:49.192Z,12.70
2017-12-01T20:23:15.887Z,13.10
2017-12-01T20:25:42.718Z,12.33
2017-12-01T20:28:09.635Z,13.00
2017-12-01T20:30:37.197Z,12.50
2017-12-01T20:33:04.269Z,11.33
2017-12-01T20:35:30.997Z,12.27
2017-12-01T20:37:57.686Z,12.00
2017-12-01T20:40:24.331Z,12.03
2017-12-01T20:42:50.959Z,10.27
2017-12-01T20:45:17.644Z,8.53
2017-12-01T20:47:44.233Z,8.43
2017-12-01T20:50:12.174Z,8.90
2017-12-01T20:52:38.960Z,10.40
2017-12-01T20:55:05.434Z,9.80
2017-12-01T20:57:31.962Z,10.97
2017-12-01T20:59:58.543Z,10.87
2017-12-01T21:02:25.026Z,10.83
2017-12-01T21:04:51.493Z,11.27
2017-12-01T21:07:18.027Z,10.93
2017-12-01T21:09:44.575Z,10.97
2017-12-01T21:12:11.198Z,10.30
2017-12-01T21:14:37.715Z,9.87
2017-12-01T21:17:04.999Z,9.30
2017-12-01T21:19:31.489Z,10.53
2017-12-01T21:21:58.565Z,9.87
2017-12-01T21:24:24.846Z,9.03
2017-12-01T21:26:51.126Z,10.17
2017-12-01T21:29:17.465Z,10.03
2017-12-01T21:31:43.792Z,9.03
2017-12-01T21:34:10.093Z,8.17
2017-12-01T21:36:37.165Z,8.60
2017-12-01T21:39:03.486Z,7.60
2017-12-01T21:41:30.050Z,8.73
2017-12-01T21:43:56.342Z,8.53
2017-12-01T21:46:23.452Z,9.33
2017-12-01T21:48:49.784Z,9.47
2017-12-01T21:51:16.080Z,10.73
2017-12-01T21:53:42.349Z,10.20
2017-12-01T21:56:08.717Z,10.80
2017-12-01T21:58:35.763Z,11.87
2017-12-01T22:01:02.808Z,10.60
2017-12-01T22:03:29.823Z,11.57
2017-12-01T22:05:56.131Z,12.03
2017-12-01T22:08:22.421Z,12.80
2017-12-01T22:10:49.498Z,10.50
2017-12-01T22:13:15.808Z,11.60
2017-12-01T22:15:42.849Z,10.97
2017-12-01T22:18:09.862Z,10.53
2017-12-01T22:20:36.174Z,11.23
2017-12-01T22:23:02.475Z,10.73
2017-12-01T22:25:28.826Z,10.80
2017-12-01T22:27:55.124Z,11.57
2017-12-01T22:30:22.714Z,12.63
2017-12-01T22:32:48.984Z,9.63
2017-12-01T22:35:15.302Z,10.23
2017-12-01T22:37:41.688Z,10.17
2017-12-01T22:40:07.994Z,10.70
2017-12-01T22:42:35.023Z,12.20
2017-12-01T22:45:01.343Z,10.20
2017-12-01T22:47:27.608Z,10.20
2017-12-01T22:49:55.587Z,10.40
2017-12-01T22:52:22.610Z,10.43
2017-12-01T22:54:48.920Z,9.77
2017-12-01T22:57:15.209Z,8.90
2017-12-01T22:59:41.551Z,11.60
2017-12-01T23:02:07.854Z,8.90
2017-12-01T23:04:34.933Z,9.10
2017-12-01T23:07:01.266Z,10.33
2017-12-01T23:09:27.562Z,7.90
2017-12-01T23:11:54.603Z,9.10
2017-12-01T23:14:21.623Z,8.90
2017-12-01T23:16:48.078Z,8.40
2017-12-01T23:19:15.184Z,8.93
2017-12-01T23:21:41.462Z,8.20
2017-12-01T23:24:08.636Z,8.57
2017-12-01T23:26:35.016Z,8.83
2017-12-01T23:29:01.316Z,8.40
2017-12-01T23:31:27.662Z,8.00
2017-12-01T23:33:54.581Z,8.70
2017-12-01T23:36:21.355Z,8.40
2017-12-01T23:38:47.685Z,7.07
2017-12-01T23:41:13.959Z,7.67
2017-12-01T23:43:41.085Z,8.80
2017-12-01T23:46:07.367Z,7.33
2017-12-01T23:48:33.618Z,7.80
2017-12-01T23:50:59.883Z,7.57
2017-12-01T23:53:26.137Z,8.03
2017-12-01T23:55:53.151Z,7.60
2017-12-01T23:58:19.512Z,7.90
